sensor_id;sensor_type;location;lat;lon;timestamp;P1;durP1;ratioP1;P2;durP2;ratioP2
55641;SDS011;41509;53.108;6.100;2022-09-09T00:04:55;4.70;;;3.20;;
55641;SDS011;41509;53.108;6.100;2022-09-09T00:08:25;6.25;;;2.85;;
55641;SDS011;41509;53.108;6.100;2022-09-09T00:11:16;4.45;;;2.90;;
55641;SDS011;41509;53.108;6.100;2022-09-09T00:14:01;5.63;;;3.40;;
55641;SDS011;41509;53.108;6.100;2022-09-09T00:23:54;5.55;;;3.13;;
55641;SDS011;41509;53.108;6.100;2022-09-09T00:31:37;5.80;;;3.45;;
55641;SDS011;41509;53.108;6.100;2022-09-09T00:36:41;5.18;;;3.50;;
55641;SDS011;41509;53.108;6.100;2022-09-09T00:42:43;6.57;;;3.05;;
55641;SDS011;41509;53.108;6.100;2022-09-09T00:53:56;5.80;;;3.03;;
55641;SDS011;41509;53.108;6.100;2022-09-09T01:02:07;6.80;;;3.30;;
55641;SDS011;41509;53.108;6.100;2022-09-09T01:04:55;5.35;;;3.22;;
55641;SDS011;41509;53.108;6.100;2022-09-09T01:07:50;5.05;;;2.90;;
55641;SDS011;41509;53.108;6.100;2022-09-09T01:10:52;5.35;;;2.83;;
55641;SDS011;41509;53.108;6.100;2022-09-09T01:13:30;4.68;;;2.97;;
55641;SDS011;41509;53.108;6.100;2022-09-09T01:16:47;5.75;;;3.13;;
55641;SDS011;41509;53.108;6.100;2022-09-09T01:20:18;5.93;;;2.90;;
55641;SDS011;41509;53.108;6.100;2022-09-09T01:23:02;4.68;;;2.15;;
55641;SDS011;41509;53.108;6.100;2022-09-09T01:28:51;4.90;;;2.70;;
55641;SDS011;41509;53.108;6.100;2022-09-09T01:31:28;5.65;;;2.92;;
55641;SDS011;41509;53.108;6.100;2022-09-09T01:34:15;5.20;;;2.40;;
55641;SDS011;41509;53.108;6.100;2022-09-09T01:40:07;4.45;;;2.40;;
55641;SDS011;41509;53.108;6.100;2022-09-09T01:42:34;4.25;;;2.65;;
55641;SDS011;41509;53.108;6.100;2022-09-09T01:45:00;4.75;;;2.53;;
55641;SDS011;41509;53.108;6.100;2022-09-09T01:47:27;4.63;;;2.58;;
55641;SDS011;41509;53.108;6.100;2022-09-09T01:49:56;5.80;;;2.70;;
55641;SDS011;41509;53.108;6.100;2022-09-09T01:52:23;5.68;;;2.70;;
55641;SDS011;41509;53.108;6.100;2022-09-09T01:54:52;5.80;;;2.55;;
55641;SDS011;41509;53.108;6.100;2022-09-09T01:57:26;5.35;;;2.55;;
55641;SDS011;41509;53.108;6.100;2022-09-09T02:00:08;4.60;;;2.75;;
55641;SDS011;41509;53.108;6.100;2022-09-09T02:05:38;4.68;;;2.35;;
55641;SDS011;41509;53.108;6.100;2022-09-09T02:10:47;4.22;;;2.60;;
55641;SDS011;41509;53.108;6.100;2022-09-09T02:13:39;6.75;;;3.10;;
55641;SDS011;41509;53.108;6.100;2022-09-09T02:18:50;4.72;;;2.95;;
55641;SDS011;41509;53.108;6.100;2022-09-09T02:21:27;5.68;;;3.08;;
55641;SDS011;41509;53.108;6.100;2022-09-09T02:23:56;4.32;;;2.78;;
55641;SDS011;41509;53.108;6.100;2022-09-09T02:26:25;5.90;;;3.22;;
55641;SDS011;41509;53.108;6.100;2022-09-09T02:28:53;5.47;;;3.30;;
55641;SDS011;41509;53.108;6.100;2022-09-09T02:31:23;6.20;;;3.65;;
55641;SDS011;41509;53.108;6.100;2022-09-09T02:33:52;5.30;;;3.35;;
55641;SDS011;41509;53.108;6.100;2022-09-09T02:36:23;6.63;;;4.10;;
55641;SDS011;41509;53.108;6.100;2022-09-09T02:38:57;6.80;;;3.80;;
55641;SDS011;41509;53.108;6.100;2022-09-09T02:41:26;6.35;;;3.47;;
55641;SDS011;41509;53.108;6.100;2022-09-09T02:43:57;6.50;;;3.75;;
55641;SDS011;41509;53.108;6.100;2022-09-09T02:49:02;5.18;;;3.28;;
55641;SDS011;41509;53.108;6.100;2022-09-09T02:54:14;5.55;;;3.85;;
55641;SDS011;41509;53.108;6.100;2022-09-09T02:57:33;4.85;;;3.33;;
55641;SDS011;41509;53.108;6.100;2022-09-09T02:59:37;9.60;;;4.10;;
55641;SDS011;41509;53.108;6.100;2022-09-09T03:02:04;6.43;;;3.28;;
55641;SDS011;41509;53.108;6.100;2022-09-09T03:04:30;5.40;;;3.63;;
55641;SDS011;41509;53.108;6.100;2022-09-09T03:06:56;6.72;;;4.20;;
55641;SDS011;41509;53.108;6.100;2022-09-09T03:09:23;7.88;;;3.67;;
55641;SDS011;41509;53.108;6.100;2022-09-09T03:11:51;7.40;;;3.72;;
55641;SDS011;41509;53.108;6.100;2022-09-09T03:14:17;8.18;;;4.45;;
55641;SDS011;41509;53.108;6.100;2022-09-09T03:16:46;7.15;;;4.43;;
55641;SDS011;41509;53.108;6.100;2022-09-09T03:19:13;5.72;;;3.65;;
55641;SDS011;41509;53.108;6.100;2022-09-09T03:21:39;5.05;;;3.65;;
55641;SDS011;41509;53.108;6.100;2022-09-09T03:24:04;8.73;;;4.28;;
55641;SDS011;41509;53.108;6.100;2022-09-09T03:26:31;7.55;;;4.18;;
55641;SDS011;41509;53.108;6.100;2022-09-09T03:28:57;5.90;;;3.97;;
55641;SDS011;41509;53.108;6.100;2022-09-09T03:31:25;6.90;;;4.18;;
55641;SDS011;41509;53.108;6.100;2022-09-09T03:33:55;5.95;;;3.85;;
55641;SDS011;41509;53.108;6.100;2022-09-09T03:36:22;7.97;;;4.10;;
55641;SDS011;41509;53.108;6.100;2022-09-09T03:38:48;7.95;;;4.07;;
55641;SDS011;41509;53.108;6.100;2022-09-09T03:41:13;5.88;;;3.92;;
55641;SDS011;41509;53.108;6.100;2022-09-09T03:43:39;7.18;;;3.72;;
55641;SDS011;41509;53.108;6.100;2022-09-09T03:46:06;6.65;;;4.30;;
55641;SDS011;41509;53.108;6.100;2022-09-09T03:48:32;11.60;;;4.68;;
55641;SDS011;41509;53.108;6.100;2022-09-09T03:50:57;8.20;;;4.38;;
55641;SDS011;41509;53.108;6.100;2022-09-09T03:53:25;5.30;;;3.30;;
55641;SDS011;41509;53.108;6.100;2022-09-09T03:55:52;9.63;;;4.53;;
55641;SDS011;41509;53.108;6.100;2022-09-09T03:58:24;7.10;;;4.07;;
55641;SDS011;41509;53.108;6.100;2022-09-09T04:00:59;9.18;;;4.10;;
55641;SDS011;41509;53.108;6.100;2022-09-09T04:03:27;9.00;;;3.80;;
55641;SDS011;41509;53.108;6.100;2022-09-09T04:05:53;9.30;;;4.47;;
55641;SDS011;41509;53.108;6.100;2022-09-09T04:08:20;6.60;;;3.42;;
55641;SDS011;41509;53.108;6.100;2022-09-09T04:13:13;7.95;;;3.72;;
55641;SDS011;41509;53.108;6.100;2022-09-09T04:15:40;5.63;;;4.00;;
55641;SDS011;41509;53.108;6.100;2022-09-09T04:18:06;6.13;;;3.72;;
55641;SDS011;41509;53.108;6.100;2022-09-09T04:20:32;5.82;;;3.65;;
55641;SDS011;41509;53.108;6.100;2022-09-09T04:22:58;6.90;;;3.75;;
55641;SDS011;41509;53.108;6.100;2022-09-09T04:25:24;7.85;;;3.60;;
55641;SDS011;41509;53.108;6.100;2022-09-09T04:27:53;8.57;;;3.97;;
55641;SDS011;41509;53.108;6.100;2022-09-09T04:30:19;8.98;;;3.38;;
55641;SDS011;41509;53.108;6.100;2022-09-09T04:32:46;6.63;;;3.85;;
55641;SDS011;41509;53.108;6.100;2022-09-09T04:35:11;8.93;;;4.03;;
55641;SDS011;41509;53.108;6.100;2022-09-09T04:37:37;4.90;;;3.22;;
55641;SDS011;41509;53.108;6.100;2022-09-09T04:40:03;6.32;;;3.33;;
55641;SDS011;41509;53.108;6.100;2022-09-09T04:44:55;6.57;;;2.92;;
55641;SDS011;41509;53.108;6.100;2022-09-09T04:47:20;6.88;;;3.33;;
55641;SDS011;41509;53.108;6.100;2022-09-09T04:49:46;6.20;;;2.97;;
55641;SDS011;41509;53.108;6.100;2022-09-09T04:52:12;7.55;;;3.80;;
55641;SDS011;41509;53.108;6.100;2022-09-09T04:54:38;6.00;;;3.50;;
55641;SDS011;41509;53.108;6.100;2022-09-09T04:57:04;5.80;;;3.42;;
55641;SDS011;41509;53.108;6.100;2022-09-09T04:59:30;6.45;;;3.95;;
55641;SDS011;41509;53.108;6.100;2022-09-09T05:01:55;6.20;;;3.88;;
55641;SDS011;41509;53.108;6.100;2022-09-09T05:04:21;7.38;;;4.50;;
55641;SDS011;41509;53.108;6.100;2022-09-09T05:06:47;10.70;;;4.35;;
55641;SDS011;41509;53.108;6.100;2022-09-09T05:09:13;9.18;;;3.90;;
55641;SDS011;41509;53.108;6.100;2022-09-09T05:11:39;6.88;;;4.22;;
55641;SDS011;41509;53.108;6.100;2022-09-09T05:14:04;8.52;;;4.50;;
55641;SDS011;41509;53.108;6.100;2022-09-09T05:16:30;7.88;;;4.10;;
55641;SDS011;41509;53.108;6.100;2022-09-09T05:18:56;8.50;;;5.10;;
55641;SDS011;41509;53.108;6.100;2022-09-09T05:21:22;7.18;;;4.53;;
55641;SDS011;41509;53.108;6.100;2022-09-09T05:23:51;8.25;;;4.40;;
55641;SDS011;41509;53.108;6.100;2022-09-09T05:26:17;6.30;;;4.07;;
55641;SDS011;41509;53.108;6.100;2022-09-09T05:28:45;8.13;;;4.68;;
55641;SDS011;41509;53.108;6.100;2022-09-09T05:31:12;6.50;;;4.50;;
55641;SDS011;41509;53.108;6.100;2022-09-09T05:33:42;7.55;;;4.55;;
55641;SDS011;41509;53.108;6.100;2022-09-09T05:36:11;7.90;;;4.45;;
55641;SDS011;41509;53.108;6.100;2022-09-09T05:38:38;8.00;;;4.82;;
55641;SDS011;41509;53.108;6.100;2022-09-09T05:41:05;7.68;;;4.70;;
55641;SDS011;41509;53.108;6.100;2022-09-09T05:43:31;10.63;;;4.55;;
55641;SDS011;41509;53.108;6.100;2022-09-09T05:46:07;9.63;;;5.05;;
55641;SDS011;41509;53.108;6.100;2022-09-09T05:48:35;9.65;;;4.47;;
55641;SDS011;41509;53.108;6.100;2022-09-09T05:51:03;7.85;;;4.45;;
55641;SDS011;41509;53.108;6.100;2022-09-09T05:53:30;6.80;;;4.68;;
55641;SDS011;41509;53.108;6.100;2022-09-09T05:56:06;6.93;;;4.15;;
55641;SDS011;41509;53.108;6.100;2022-09-09T05:58:51;10.35;;;4.60;;
55641;SDS011;41509;53.108;6.100;2022-09-09T06:01:22;7.07;;;4.00;;
55641;SDS011;41509;53.108;6.100;2022-09-09T06:03:56;6.18;;;3.90;;
55641;SDS011;41509;53.108;6.100;2022-09-09T06:06:24;7.88;;;4.18;;
55641;SDS011;41509;53.108;6.100;2022-09-09T06:08:52;6.60;;;3.78;;
55641;SDS011;41509;53.108;6.100;2022-09-09T06:11:23;6.38;;;3.97;;
55641;SDS011;41509;53.108;6.100;2022-09-09T06:13:50;9.32;;;4.38;;
55641;SDS011;41509;53.108;6.100;2022-09-09T06:16:23;8.18;;;4.00;;
55641;SDS011;41509;53.108;6.100;2022-09-09T06:18:51;10.50;;;4.88;;
55641;SDS011;41509;53.108;6.100;2022-09-09T06:21:19;8.38;;;3.95;;
55641;SDS011;41509;53.108;6.100;2022-09-09T06:23:47;7.85;;;5.03;;
55641;SDS011;41509;53.108;6.100;2022-09-09T06:29:14;11.18;;;5.32;;
55641;SDS011;41509;53.108;6.100;2022-09-09T06:31:39;10.80;;;4.88;;
55641;SDS011;41509;53.108;6.100;2022-09-09T06:34:07;10.35;;;4.38;;
55641;SDS011;41509;53.108;6.100;2022-09-09T06:36:34;8.50;;;4.85;;
55641;SDS011;41509;53.108;6.100;2022-09-09T06:39:02;10.13;;;5.28;;
55641;SDS011;41509;53.108;6.100;2022-09-09T06:41:28;8.52;;;4.25;;
55641;SDS011;41509;53.108;6.100;2022-09-09T06:43:56;7.35;;;4.63;;
55641;SDS011;41509;53.108;6.100;2022-09-09T06:46:22;7.38;;;4.95;;
55641;SDS011;41509;53.108;6.100;2022-09-09T06:48:52;6.85;;;4.00;;
55641;SDS011;41509;53.108;6.100;2022-09-09T06:51:21;10.05;;;4.95;;
55641;SDS011;41509;53.108;6.100;2022-09-09T06:53:51;9.85;;;4.85;;
55641;SDS011;41509;53.108;6.100;2022-09-09T06:56:23;9.68;;;4.28;;
55641;SDS011;41509;53.108;6.100;2022-09-09T06:58:49;7.18;;;4.18;;
55641;SDS011;41509;53.108;6.100;2022-09-09T07:01:17;7.05;;;4.43;;
55641;SDS011;41509;53.108;6.100;2022-09-09T07:03:49;9.68;;;4.28;;
55641;SDS011;41509;53.108;6.100;2022-09-09T07:06:19;6.15;;;3.50;;
55641;SDS011;41509;53.108;6.100;2022-09-09T07:08:50;7.05;;;3.83;;
55641;SDS011;41509;53.108;6.100;2022-09-09T07:11:16;8.10;;;3.78;;
55641;SDS011;41509;53.108;6.100;2022-09-09T07:13:43;5.13;;;3.83;;
55641;SDS011;41509;53.108;6.100;2022-09-09T07:16:13;5.43;;;3.78;;
55641;SDS011;41509;53.108;6.100;2022-09-09T07:18:40;7.03;;;3.88;;
55641;SDS011;41509;53.108;6.100;2022-09-09T07:21:07;5.22;;;3.20;;
55641;SDS011;41509;53.108;6.100;2022-09-09T07:23:34;7.30;;;3.60;;
55641;SDS011;41509;53.108;6.100;2022-09-09T07:26:01;6.97;;;3.63;;
55641;SDS011;41509;53.108;6.100;2022-09-09T07:28:27;4.82;;;3.00;;
55641;SDS011;41509;53.108;6.100;2022-09-09T07:31:01;7.20;;;3.15;;
55641;SDS011;41509;53.108;6.100;2022-09-09T07:33:28;7.07;;;3.40;;
55641;SDS011;41509;53.108;6.100;2022-09-09T07:36:08;6.13;;;3.28;;
55641;SDS011;41509;53.108;6.100;2022-09-09T07:38:38;6.10;;;3.22;;
55641;SDS011;41509;53.108;6.100;2022-09-09T07:41:12;5.57;;;3.30;;
55641;SDS011;41509;53.108;6.100;2022-09-09T07:43:41;4.90;;;3.03;;
55641;SDS011;41509;53.108;6.100;2022-09-09T07:46:08;5.15;;;3.00;;
55641;SDS011;41509;53.108;6.100;2022-09-09T07:48:35;7.60;;;3.17;;
55641;SDS011;41509;53.108;6.100;2022-09-09T07:51:06;4.55;;;2.97;;
55641;SDS011;41509;53.108;6.100;2022-09-09T07:53:37;6.25;;;3.00;;
55641;SDS011;41509;53.108;6.100;2022-09-09T07:56:05;5.97;;;2.95;;
55641;SDS011;41509;53.108;6.100;2022-09-09T07:58:34;8.38;;;2.92;;
55641;SDS011;41509;53.108;6.100;2022-09-09T08:01:07;10.27;;;3.50;;
55641;SDS011;41509;53.108;6.100;2022-09-09T08:03:35;7.20;;;2.80;;
55641;SDS011;41509;53.108;6.100;2022-09-09T08:06:05;4.68;;;2.78;;
55641;SDS011;41509;53.108;6.100;2022-09-09T08:08:34;6.93;;;3.03;;
55641;SDS011;41509;53.108;6.100;2022-09-09T08:11:10;7.18;;;2.35;;
55641;SDS011;41509;53.108;6.100;2022-09-09T08:13:38;4.03;;;2.75;;
55641;SDS011;41509;53.108;6.100;2022-09-09T08:16:12;4.55;;;2.95;;
55641;SDS011;41509;53.108;6.100;2022-09-09T08:18:42;7.13;;;2.80;;
55641;SDS011;41509;53.108;6.100;2022-09-09T08:21:13;6.43;;;2.13;;
55641;SDS011;41509;53.108;6.100;2022-09-09T08:23:42;7.55;;;3.00;;
55641;SDS011;41509;53.108;6.100;2022-09-09T08:28:41;6.00;;;2.40;;
55641;SDS011;41509;53.108;6.100;2022-09-09T08:31:08;6.75;;;3.00;;
55641;SDS011;41509;53.108;6.100;2022-09-09T08:33:41;6.10;;;3.15;;
55641;SDS011;41509;53.108;6.100;2022-09-09T08:36:11;6.03;;;3.30;;
55641;SDS011;41509;53.108;6.100;2022-09-09T08:38:40;6.45;;;3.30;;
55641;SDS011;41509;53.108;6.100;2022-09-09T08:46:42;6.72;;;3.17;;
55641;SDS011;41509;53.108;6.100;2022-09-09T08:52:06;5.30;;;3.08;;
55641;SDS011;41509;53.108;6.100;2022-09-09T08:54:40;4.97;;;2.63;;
55641;SDS011;41509;53.108;6.100;2022-09-09T08:57:08;6.13;;;3.55;;
55641;SDS011;41509;53.108;6.100;2022-09-09T08:59:40;5.28;;;2.58;;
55641;SDS011;41509;53.108;6.100;2022-09-09T09:05:05;7.68;;;2.47;;
55641;SDS011;41509;53.108;6.100;2022-09-09T09:13:07;6.07;;;2.20;;
55641;SDS011;41509;53.108;6.100;2022-09-09T09:15:46;4.85;;;2.17;;
55641;SDS011;41509;53.108;6.100;2022-09-09T09:18:17;7.72;;;2.15;;
55641;SDS011;41509;53.108;6.100;2022-09-09T09:20:50;5.18;;;2.45;;
55641;SDS011;41509;53.108;6.100;2022-09-09T09:23:40;8.18;;;2.10;;
55641;SDS011;41509;53.108;6.100;2022-09-09T09:26:10;5.13;;;1.70;;
55641;SDS011;41509;53.108;6.100;2022-09-09T09:28:37;3.58;;;2.25;;
55641;SDS011;41509;53.108;6.100;2022-09-09T09:31:11;7.32;;;2.03;;
55641;SDS011;41509;53.108;6.100;2022-09-09T09:36:18;6.80;;;1.92;;
55641;SDS011;41509;53.108;6.100;2022-09-09T09:41:49;3.85;;;1.40;;
55641;SDS011;41509;53.108;6.100;2022-09-09T09:44:28;6.07;;;2.20;;
55641;SDS011;41509;53.108;6.100;2022-09-09T09:49:55;4.05;;;2.33;;
55641;SDS011;41509;53.108;6.100;2022-09-09T09:52:25;5.30;;;1.92;;
55641;SDS011;41509;53.108;6.100;2022-09-09T09:54:56;2.78;;;1.35;;
55641;SDS011;41509;53.108;6.100;2022-09-09T09:57:25;5.85;;;1.48;;
55641;SDS011;41509;53.108;6.100;2022-09-09T10:00:02;3.42;;;1.27;;
55641;SDS011;41509;53.108;6.100;2022-09-09T10:02:38;3.65;;;1.60;;
55641;SDS011;41509;53.108;6.100;2022-09-09T10:05:12;2.58;;;1.23;;
55641;SDS011;41509;53.108;6.100;2022-09-09T10:07:40;4.20;;;1.30;;
55641;SDS011;41509;53.108;6.100;2022-09-09T10:10:18;5.68;;;1.45;;
55641;SDS011;41509;53.108;6.100;2022-09-09T10:13:03;2.47;;;1.13;;
55641;SDS011;41509;53.108;6.100;2022-09-09T10:21:03;6.43;;;1.30;;
55641;SDS011;41509;53.108;6.100;2022-09-09T10:32:01;3.58;;;1.08;;
55641;SDS011;41509;53.108;6.100;2022-09-09T10:39:48;3.95;;;0.80;;
55641;SDS011;41509;53.108;6.100;2022-09-09T10:42:20;1.92;;;0.90;;
55641;SDS011;41509;53.108;6.100;2022-09-09T10:50:10;3.00;;;1.02;;
55641;SDS011;41509;53.108;6.100;2022-09-09T10:53:02;2.58;;;1.20;;
55641;SDS011;41509;53.108;6.100;2022-09-09T10:55:44;7.65;;;1.30;;
55641;SDS011;41509;53.108;6.100;2022-09-09T10:58:27;5.10;;;1.13;;
55641;SDS011;41509;53.108;6.100;2022-09-09T11:01:00;2.30;;;0.90;;
55641;SDS011;41509;53.108;6.100;2022-09-09T11:03:34;4.82;;;1.35;;
55641;SDS011;41509;53.108;6.100;2022-09-09T11:06:05;5.07;;;0.98;;
55641;SDS011;41509;53.108;6.100;2022-09-09T11:08:38;3.08;;;1.10;;
55641;SDS011;41509;53.108;6.100;2022-09-09T11:11:12;4.10;;;1.20;;
55641;SDS011;41509;53.108;6.100;2022-09-09T11:14:10;5.53;;;1.27;;
55641;SDS011;41509;53.108;6.100;2022-09-09T11:19:24;3.65;;;1.00;;
55641;SDS011;41509;53.108;6.100;2022-09-09T11:21:52;3.00;;;0.88;;
55641;SDS011;41509;53.108;6.100;2022-09-09T11:26:49;4.90;;;1.20;;
55641;SDS011;41509;53.108;6.100;2022-09-09T11:35:03;7.35;;;0.98;;
55641;SDS011;41509;53.108;6.100;2022-09-09T11:40:27;3.55;;;0.73;;
55641;SDS011;41509;53.108;6.100;2022-09-09T11:46:07;10.35;;;0.98;;
55641;SDS011;41509;53.108;6.100;2022-09-09T11:48:35;2.33;;;1.30;;
55641;SDS011;41509;53.108;6.100;2022-09-09T11:51:13;4.57;;;1.30;;
55641;SDS011;41509;53.108;6.100;2022-09-09T11:56:33;2.78;;;0.98;;
55641;SDS011;41509;53.108;6.100;2022-09-09T11:59:21;2.75;;;1.08;;
55641;SDS011;41509;53.108;6.100;2022-09-09T12:04:37;6.85;;;1.52;;
55641;SDS011;41509;53.108;6.100;2022-09-09T12:12:30;6.07;;;1.33;;
55641;SDS011;41509;53.108;6.100;2022-09-09T12:17:52;5.97;;;1.75;;
55641;SDS011;41509;53.108;6.100;2022-09-09T12:20:20;4.45;;;1.20;;
55641;SDS011;41509;53.108;6.100;2022-09-09T12:33:36;4.57;;;1.30;;
55641;SDS011;41509;53.108;6.100;2022-09-09T12:36:10;7.55;;;1.20;;
55641;SDS011;41509;53.108;6.100;2022-09-09T12:38:45;2.50;;;1.30;;
55641;SDS011;41509;53.108;6.100;2022-09-09T12:43:44;6.40;;;1.60;;
55641;SDS011;41509;53.108;6.100;2022-09-09T12:46:14;3.83;;;1.10;;
55641;SDS011;41509;53.108;6.100;2022-09-09T12:48:51;4.05;;;0.90;;
55641;SDS011;41509;53.108;6.100;2022-09-09T12:51:22;4.65;;;1.30;;
55641;SDS011;41509;53.108;6.100;2022-09-09T12:53:51;2.05;;;1.15;;
55641;SDS011;41509;53.108;6.100;2022-09-09T12:56:18;2.42;;;1.00;;
55641;SDS011;41509;53.108;6.100;2022-09-09T12:58:52;3.25;;;0.98;;
55641;SDS011;41509;53.108;6.100;2022-09-09T13:01:21;3.08;;;1.10;;
55641;SDS011;41509;53.108;6.100;2022-09-09T13:03:58;3.53;;;1.15;;
55641;SDS011;41509;53.108;6.100;2022-09-09T13:06:25;2.75;;;1.00;;
55641;SDS011;41509;53.108;6.100;2022-09-09T13:08:53;4.15;;;1.25;;
55641;SDS011;41509;53.108;6.100;2022-09-09T13:11:21;6.10;;;0.82;;
55641;SDS011;41509;53.108;6.100;2022-09-09T13:13:56;5.32;;;1.30;;
55641;SDS011;41509;53.108;6.100;2022-09-09T13:16:30;3.47;;;1.20;;
55641;SDS011;41509;53.108;6.100;2022-09-09T13:18:58;5.40;;;1.20;;
55641;SDS011;41509;53.108;6.100;2022-09-09T13:21:36;3.75;;;0.60;;
55641;SDS011;41509;53.108;6.100;2022-09-09T13:24:04;1.95;;;0.90;;
55641;SDS011;41509;53.108;6.100;2022-09-09T13:26:32;2.78;;;1.30;;
55641;SDS011;41509;53.108;6.100;2022-09-09T13:32:03;4.38;;;1.38;;
55641;SDS011;41509;53.108;6.100;2022-09-09T13:34:34;4.28;;;1.20;;
55641;SDS011;41509;53.108;6.100;2022-09-09T13:37:02;4.05;;;1.25;;
55641;SDS011;41509;53.108;6.100;2022-09-09T13:39:38;2.75;;;1.00;;
55641;SDS011;41509;53.108;6.100;2022-09-09T13:42:04;2.47;;;1.05;;
55641;SDS011;41509;53.108;6.100;2022-09-09T13:44:35;3.33;;;1.30;;
55641;SDS011;41509;53.108;6.100;2022-09-09T13:47:04;5.07;;;1.17;;
55641;SDS011;41509;53.108;6.100;2022-09-09T13:49:42;2.38;;;0.75;;
55641;SDS011;41509;53.108;6.100;2022-09-09T13:52:09;3.35;;;1.00;;
55641;SDS011;41509;53.108;6.100;2022-09-09T13:54:35;2.80;;;0.80;;
55641;SDS011;41509;53.108;6.100;2022-09-09T13:57:01;2.50;;;0.77;;
55641;SDS011;41509;53.108;6.100;2022-09-09T13:59:27;0.80;;;0.43;;
55641;SDS011;41509;53.108;6.100;2022-09-09T14:01:53;1.83;;;0.65;;
55641;SDS011;41509;53.108;6.100;2022-09-09T14:04:19;3.03;;;0.60;;
55641;SDS011;41509;53.108;6.100;2022-09-09T14:06:48;3.65;;;0.82;;
55641;SDS011;41509;53.108;6.100;2022-09-09T14:09:16;1.85;;;0.60;;
55641;SDS011;41509;53.108;6.100;2022-09-09T14:11:43;2.05;;;0.73;;
55641;SDS011;41509;53.108;6.100;2022-09-09T14:14:10;1.45;;;0.80;;
55641;SDS011;41509;53.108;6.100;2022-09-09T14:16:36;4.90;;;0.98;;
55641;SDS011;41509;53.108;6.100;2022-09-09T14:19:02;3.97;;;0.80;;
55641;SDS011;41509;53.108;6.100;2022-09-09T14:23:55;4.03;;;0.77;;
55641;SDS011;41509;53.108;6.100;2022-09-09T14:26:23;1.83;;;0.50;;
55641;SDS011;41509;53.108;6.100;2022-09-09T14:28:50;7.65;;;1.08;;
55641;SDS011;41509;53.108;6.100;2022-09-09T14:31:17;1.23;;;0.70;;
55641;SDS011;41509;53.108;6.100;2022-09-09T14:33:44;1.77;;;0.70;;
55641;SDS011;41509;53.108;6.100;2022-09-09T14:36:10;1.67;;;0.60;;
55641;SDS011;41509;53.108;6.100;2022-09-09T14:41:06;4.50;;;1.52;;
55641;SDS011;41509;53.108;6.100;2022-09-09T14:43:34;1.77;;;0.60;;
55641;SDS011;41509;53.108;6.100;2022-09-09T14:48:32;2.30;;;0.73;;
55641;SDS011;41509;53.108;6.100;2022-09-09T14:51:05;3.38;;;0.60;;
55641;SDS011;41509;53.108;6.100;2022-09-09T14:53:32;2.38;;;0.70;;
55641;SDS011;41509;53.108;6.100;2022-09-09T14:58:31;4.70;;;0.95;;
55641;SDS011;41509;53.108;6.100;2022-09-09T15:03:30;2.60;;;0.90;;
55641;SDS011;41509;53.108;6.100;2022-09-09T15:05:55;3.00;;;0.70;;
55641;SDS011;41509;53.108;6.100;2022-09-09T15:08:23;3.05;;;1.00;;
55641;SDS011;41509;53.108;6.100;2022-09-09T15:10:51;2.25;;;0.95;;
55641;SDS011;41509;53.108;6.100;2022-09-09T15:13:24;1.33;;;0.82;;
55641;SDS011;41509;53.108;6.100;2022-09-09T15:15:50;4.38;;;1.30;;
55641;SDS011;41509;53.108;6.100;2022-09-09T15:18:16;2.95;;;0.88;;
55641;SDS011;41509;53.108;6.100;2022-09-09T15:20:45;1.30;;;0.75;;
55641;SDS011;41509;53.108;6.100;2022-09-09T15:23:11;1.80;;;0.77;;
55641;SDS011;41509;53.108;6.100;2022-09-09T15:28:03;2.80;;;0.90;;
55641;SDS011;41509;53.108;6.100;2022-09-09T15:30:29;2.03;;;0.88;;
55641;SDS011;41509;53.108;6.100;2022-09-09T15:32:54;2.78;;;0.88;;
55641;SDS011;41509;53.108;6.100;2022-09-09T15:35:20;1.15;;;0.70;;
55641;SDS011;41509;53.108;6.100;2022-09-09T15:37:45;3.70;;;0.88;;
55641;SDS011;41509;53.108;6.100;2022-09-09T15:40:11;2.38;;;0.75;;
55641;SDS011;41509;53.108;6.100;2022-09-09T15:42:37;1.92;;;0.90;;
55641;SDS011;41509;53.108;6.100;2022-09-09T15:45:03;2.65;;;1.23;;
55641;SDS011;41509;53.108;6.100;2022-09-09T15:47:30;2.38;;;1.27;;
55641;SDS011;41509;53.108;6.100;2022-09-09T15:49:57;2.47;;;1.20;;
55641;SDS011;41509;53.108;6.100;2022-09-09T15:52:22;5.53;;;1.80;;
55641;SDS011;41509;53.108;6.100;2022-09-09T15:54:48;4.70;;;1.98;;
55641;SDS011;41509;53.108;6.100;2022-09-09T15:57:14;4.03;;;2.40;;
55641;SDS011;41509;53.108;6.100;2022-09-09T15:59:39;5.30;;;2.58;;
55641;SDS011;41509;53.108;6.100;2022-09-09T16:02:05;4.80;;;2.10;;
55641;SDS011;41509;53.108;6.100;2022-09-09T16:04:32;3.13;;;1.65;;
55641;SDS011;41509;53.108;6.100;2022-09-09T16:07:00;4.78;;;1.48;;
55641;SDS011;41509;53.108;6.100;2022-09-09T16:09:28;5.70;;;1.40;;
55641;SDS011;41509;53.108;6.100;2022-09-09T16:11:58;5.93;;;1.65;;
55641;SDS011;41509;53.108;6.100;2022-09-09T16:14:31;2.42;;;1.48;;
55641;SDS011;41509;53.108;6.100;2022-09-09T16:17:00;2.88;;;1.08;;
55641;SDS011;41509;53.108;6.100;2022-09-09T16:19:27;3.58;;;1.30;;
55641;SDS011;41509;53.108;6.100;2022-09-09T16:21:52;2.25;;;1.30;;
55641;SDS011;41509;53.108;6.100;2022-09-09T16:24:19;2.65;;;1.40;;
55641;SDS011;41509;53.108;6.100;2022-09-09T16:26:48;3.40;;;1.42;;
55641;SDS011;41509;53.108;6.100;2022-09-09T16:29:16;3.05;;;1.80;;
55641;SDS011;41509;53.108;6.100;2022-09-09T16:31:43;2.92;;;1.40;;
55641;SDS011;41509;53.108;6.100;2022-09-09T16:34:12;3.35;;;1.13;;
55641;SDS011;41509;53.108;6.100;2022-09-09T16:36:39;2.53;;;1.38;;
55641;SDS011;41509;53.108;6.100;2022-09-09T16:39:07;3.15;;;1.50;;
55641;SDS011;41509;53.108;6.100;2022-09-09T16:41:35;3.60;;;1.33;;
55641;SDS011;41509;53.108;6.100;2022-09-09T16:44:02;3.13;;;1.38;;
55641;SDS011;41509;53.108;6.100;2022-09-09T16:46:29;3.15;;;1.23;;
55641;SDS011;41509;53.108;6.100;2022-09-09T16:48:57;3.35;;;1.30;;
55641;SDS011;41509;53.108;6.100;2022-09-09T16:51:28;2.35;;;1.02;;
55641;SDS011;41509;53.108;6.100;2022-09-09T16:53:57;7.93;;;1.45;;
55641;SDS011;41509;53.108;6.100;2022-09-09T16:56:25;3.42;;;1.35;;
55641;SDS011;41509;53.108;6.100;2022-09-09T16:58:54;5.28;;;1.67;;
55641;SDS011;41509;53.108;6.100;2022-09-09T17:01:22;3.45;;;1.80;;
55641;SDS011;41509;53.108;6.100;2022-09-09T17:03:52;8.02;;;4.15;;
55641;SDS011;41509;53.108;6.100;2022-09-09T17:06:18;11.52;;;3.53;;
55641;SDS011;41509;53.108;6.100;2022-09-09T17:08:44;7.63;;;2.55;;
55641;SDS011;41509;53.108;6.100;2022-09-09T17:11:14;5.43;;;2.42;;
55641;SDS011;41509;53.108;6.100;2022-09-09T17:13:44;3.50;;;2.03;;
55641;SDS011;41509;53.108;6.100;2022-09-09T17:16:12;10.55;;;2.42;;
55641;SDS011;41509;53.108;6.100;2022-09-09T17:18:39;6.20;;;2.00;;
55641;SDS011;41509;53.108;6.100;2022-09-09T17:21:06;5.63;;;2.17;;
55641;SDS011;41509;53.108;6.100;2022-09-09T17:23:39;4.32;;;2.70;;
55641;SDS011;41509;53.108;6.100;2022-09-09T17:26:06;3.67;;;1.85;;
55641;SDS011;41509;53.108;6.100;2022-09-09T17:28:34;3.53;;;1.80;;
55641;SDS011;41509;53.108;6.100;2022-09-09T17:31:01;3.17;;;1.45;;
55641;SDS011;41509;53.108;6.100;2022-09-09T17:33:28;4.10;;;1.40;;
55641;SDS011;41509;53.108;6.100;2022-09-09T17:35:58;6.07;;;2.92;;
55641;SDS011;41509;53.108;6.100;2022-09-09T17:38:27;6.05;;;2.95;;
55641;SDS011;41509;53.108;6.100;2022-09-09T17:41:04;7.45;;;2.90;;
55641;SDS011;41509;53.108;6.100;2022-09-09T17:43:44;5.10;;;2.20;;
55641;SDS011;41509;53.108;6.100;2022-09-09T17:46:30;4.45;;;1.92;;
55641;SDS011;41509;53.108;6.100;2022-09-09T17:49:01;4.43;;;1.65;;
55641;SDS011;41509;53.108;6.100;2022-09-09T17:51:32;3.53;;;1.70;;
55641;SDS011;41509;53.108;6.100;2022-09-09T17:54:00;6.65;;;3.05;;
55641;SDS011;41509;53.108;6.100;2022-09-09T17:56:29;3.25;;;2.00;;
55641;SDS011;41509;53.108;6.100;2022-09-09T17:58:57;4.13;;;2.53;;
55641;SDS011;41509;53.108;6.100;2022-09-09T18:01:24;6.40;;;1.90;;
55641;SDS011;41509;53.108;6.100;2022-09-09T18:03:59;4.88;;;2.22;;
55641;SDS011;41509;53.108;6.100;2022-09-09T18:06:26;5.13;;;2.08;;